createdAt,value
2022-10-16T00:01:24.762Z,100606.09
2022-10-16T00:03:53.014Z,100605.88
2022-10-16T00:06:21.638Z,100599.84
2022-10-16T00:08:49.940Z,100605.22
2022-10-16T00:11:23.088Z,100598.66
2022-10-16T00:13:52.888Z,100609.09
2022-10-16T00:16:20.433Z,100605.88
2022-10-16T00:18:47.888Z,100624.78
2022-10-16T00:21:20.330Z,100638.22
2022-10-16T00:23:48.116Z,100633.75
2022-10-16T00:26:17.331Z,100620.81
2022-10-16T00:28:47.918Z,100634.69
2022-10-16T00:31:15.529Z,100624.13
2022-10-16T00:33:43.436Z,100630.06
2022-10-16T00:36:13.751Z,100627.88
2022-10-16T00:38:41.060Z,100638.13
2022-10-16T00:41:11.195Z,100641.66
2022-10-16T00:43:39.841Z,100638.56
2022-10-16T00:46:15.346Z,100638.38
2022-10-16T00:48:46.566Z,100650.19
2022-10-16T00:51:14.166Z,100646.13
2022-10-16T00:53:41.656Z,100648.63
2022-10-16T00:56:08.965Z,100633.59
2022-10-16T00:58:36.768Z,100638.00
2022-10-16T01:01:04.011Z,100635.13
2022-10-16T01:03:34.796Z,100634.75
2022-10-16T01:09:10.483Z,100631.28
2022-10-16T01:11:56.485Z,100642.50
2022-10-16T01:14:47.005Z,100641.75
2022-10-16T01:17:20.052Z,100648.06
2022-10-16T01:19:59.188Z,100656.56
2022-10-16T01:22:34.932Z,100660.88
2022-10-16T01:25:06.867Z,100658.38
2022-10-16T01:27:37.216Z,100655.91
2022-10-16T01:30:06.984Z,100654.59
2022-10-16T01:32:40.153Z,100661.22
2022-10-16T01:35:13.330Z,100662.88
2022-10-16T01:38:13.970Z,100670.00
2022-10-16T01:40:46.185Z,100651.09
2022-10-16T01:43:16.594Z,100657.88
2022-10-16T01:45:45.984Z,100653.84
2022-10-16T01:48:15.969Z,100644.09
2022-10-16T01:50:45.234Z,100652.84
2022-10-16T01:53:14.351Z,100655.53
2022-10-16T01:55:46.006Z,100653.84
2022-10-16T01:58:14.859Z,100656.06
2022-10-16T02:00:44.962Z,100641.66
2022-10-16T02:03:12.335Z,100659.47
2022-10-16T02:05:56.608Z,100664.34
2022-10-16T02:08:25.621Z,100658.44
2022-10-16T02:10:53.037Z,100651.44
2022-10-16T02:13:27.281Z,100648.91
2022-10-16T02:15:54.755Z,100660.97
2022-10-16T02:18:22.564Z,100664.03
2022-10-16T02:21:02.122Z,100670.50
2022-10-16T02:23:44.921Z,100657.97
2022-10-16T02:26:14.807Z,100654.72
2022-10-16T02:28:53.269Z,100662.56
2022-10-16T02:31:27.973Z,100668.06
2022-10-16T02:33:57.685Z,100672.31
2022-10-16T02:36:24.962Z,100665.22
2022-10-16T02:38:53.072Z,100671.38
2022-10-16T02:41:22.586Z,100669.16
2022-10-16T02:43:50.535Z,100662.31
2022-10-16T02:46:18.686Z,100667.34
2022-10-16T02:48:45.936Z,100671.59
2022-10-16T02:51:13.308Z,100683.88
2022-10-16T02:53:40.510Z,100679.91
2022-10-16T02:56:08.193Z,100691.28
2022-10-16T02:58:35.484Z,100686.00
2022-10-16T03:01:02.846Z,100682.09
2022-10-16T03:03:30.233Z,100694.34
2022-10-16T03:05:57.482Z,100696.72
2022-10-16T03:08:26.132Z,100694.19
2022-10-16T03:10:53.680Z,100692.09
2022-10-16T03:13:21.486Z,100693.09
2022-10-16T03:15:48.876Z,100689.81
2022-10-16T03:18:16.362Z,100690.13
2022-10-16T03:20:44.166Z,100703.97
2022-10-16T03:23:11.542Z,100698.56
2022-10-16T03:25:38.897Z,100699.94
2022-10-16T03:28:06.436Z,100696.56
2022-10-16T03:30:33.730Z,100683.34
2022-10-16T03:33:00.964Z,100663.97
2022-10-16T03:35:28.352Z,100661.38
2022-10-16T03:37:55.616Z,100654.41
2022-10-16T03:40:22.865Z,100661.84
2022-10-16T03:42:50.088Z,100663.47
2022-10-16T03:45:17.590Z,100675.91
2022-10-16T03:47:44.995Z,100678.69
2022-10-16T03:50:12.233Z,100687.50
2022-10-16T03:52:39.455Z,100681.84
2022-10-16T03:55:07.402Z,100679.59
2022-10-16T03:57:34.924Z,100691.03
2022-10-16T04:00:02.235Z,100702.59
2022-10-16T04:02:39.733Z,100690.00
2022-10-16T04:05:07.284Z,100687.06
2022-10-16T04:07:34.595Z,100678.13
2022-10-16T04:10:01.905Z,100691.75
2022-10-16T04:12:29.259Z,100690.78
2022-10-16T04:14:56.440Z,100691.47
2022-10-16T04:17:24.080Z,100696.31
2022-10-16T04:19:51.532Z,100697.91
2022-10-16T04:22:18.794Z,100692.00
2022-10-16T04:24:46.090Z,100696.94
2022-10-16T04:27:13.315Z,100705.44
2022-10-16T04:29:40.546Z,100708.38
2022-10-16T04:32:09.774Z,100708.44
2022-10-16T04:34:39.197Z,100716.47
2022-10-16T04:37:06.621Z,100732.06
2022-10-16T04:39:33.881Z,100735.41
2022-10-16T04:42:01.238Z,100738.34
2022-10-16T04:44:28.466Z,100738.72
2022-10-16T04:46:55.794Z,100738.47
2022-10-16T04:49:22.997Z,100738.91
2022-10-16T04:51:50.513Z,100754.63
2022-10-16T04:54:17.718Z,100758.97
2022-10-16T04:56:48.188Z,100758.50
2022-10-16T04:59:16.279Z,100764.34
2022-10-16T05:01:43.819Z,100757.81
2022-10-16T05:04:11.209Z,100773.88
2022-10-16T05:06:39.625Z,100777.28
2022-10-16T05:09:06.955Z,100768.41
2022-10-16T05:11:34.621Z,100772.16
2022-10-16T05:14:02.641Z,100770.13
2022-10-16T05:16:31.293Z,100765.16
2022-10-16T05:19:22.380Z,100776.91
2022-10-16T05:21:46.051Z,100795.59
2022-10-16T05:24:13.559Z,100799.19
2022-10-16T05:26:40.716Z,100800.00
2022-10-16T05:29:07.981Z,100799.72
2022-10-16T05:31:35.428Z,100805.47
2022-10-16T05:34:03.500Z,100802.88
2022-10-16T05:36:30.752Z,100792.16
2022-10-16T05:38:57.976Z,100792.91
2022-10-16T05:41:29.215Z,100791.34
2022-10-16T05:43:56.449Z,100788.22
2022-10-16T05:46:23.679Z,100796.31
2022-10-16T05:48:54.360Z,100804.50
2022-10-16T05:51:21.624Z,100801.53
2022-10-16T05:53:48.861Z,100790.94
2022-10-16T05:56:16.408Z,100791.94
2022-10-16T05:58:45.174Z,100799.66
2022-10-16T06:01:14.937Z,100800.66
2022-10-16T06:03:42.517Z,100803.44
2022-10-16T06:06:14.814Z,100795.53
2022-10-16T06:08:43.253Z,100798.22
2022-10-16T06:11:13.206Z,100792.19
2022-10-16T06:13:42.784Z,100795.88
2022-10-16T06:16:11.668Z,100791.03
2022-10-16T06:18:39.401Z,100797.50
2022-10-16T06:21:11.352Z,100801.34
2022-10-16T06:23:38.873Z,100807.91
2022-10-16T06:26:13.949Z,100796.97
2022-10-16T06:28:41.290Z,100796.41
2022-10-16T06:31:10.207Z,100805.25
2022-10-16T06:33:38.286Z,100806.41
2022-10-16T06:36:13.350Z,100805.50
2022-10-16T06:38:40.742Z,100797.78
2022-10-16T06:41:09.000Z,100793.13
2022-10-16T06:43:36.330Z,100803.09
2022-10-16T06:46:04.690Z,100809.78
2022-10-16T06:48:32.336Z,100807.56
2022-10-16T06:53:40.079Z,100819.16
2022-10-16T06:56:17.526Z,100830.41
2022-10-16T06:58:45.310Z,100831.41
2022-10-16T07:01:13.265Z,100837.59
2022-10-16T07:03:42.872Z,100836.16
2022-10-16T07:06:12.000Z,100839.41
2022-10-16T07:08:41.385Z,100840.38
2022-10-16T07:11:10.926Z,100847.13
2022-10-16T07:13:40.191Z,100856.59
2022-10-16T07:16:10.327Z,100859.09
2022-10-16T07:18:37.896Z,100850.63
2022-10-16T07:21:09.550Z,100851.19
2022-10-16T07:23:36.794Z,100859.38
2022-10-16T07:26:04.792Z,100854.75
2022-10-16T07:28:33.295Z,100860.97
2022-10-16T07:31:09.086Z,100870.41
2022-10-16T07:33:36.449Z,100861.53
2022-10-16T07:36:03.948Z,100869.06
2022-10-16T07:38:31.174Z,100877.69
2022-10-16T07:41:00.073Z,100882.72
2022-10-16T07:43:30.690Z,100893.69
2022-10-16T07:45:59.111Z,100898.31
2022-10-16T07:48:30.332Z,100905.75
2022-10-16T07:51:05.006Z,100900.91
2022-10-16T07:53:33.001Z,100898.03
2022-10-16T07:56:05.496Z,100895.84
2022-10-16T07:58:33.775Z,100903.28
2022-10-16T08:01:05.548Z,100905.69
2022-10-16T08:03:32.919Z,100910.38
2022-10-16T08:06:00.929Z,100920.88
2022-10-16T08:08:28.894Z,100921.91
2022-10-16T08:10:56.187Z,100922.22
2022-10-16T08:13:23.510Z,100930.19
2022-10-16T08:15:50.775Z,100927.41
2022-10-16T08:18:17.990Z,100923.56
2022-10-16T08:20:45.245Z,100922.91
2022-10-16T08:23:14.268Z,100919.78
2022-10-16T08:25:42.456Z,100931.50
2022-10-16T08:28:11.482Z,100916.44
2022-10-16T08:30:38.962Z,100929.94
2022-10-16T08:33:07.429Z,100927.63
2022-10-16T08:35:34.911Z,100929.94
2022-10-16T08:38:07.243Z,100928.91
2022-10-16T08:40:35.601Z,100925.91
2022-10-16T08:43:22.049Z,100931.91
2022-10-16T08:45:49.298Z,100931.38
2022-10-16T08:48:31.584Z,100937.06
2022-10-16T08:50:58.851Z,100934.28
2022-10-16T08:53:32.490Z,100931.88
2022-10-16T08:55:59.702Z,100934.13
2022-10-16T08:58:29.673Z,100933.31
2022-10-16T09:01:01.930Z,100937.28
2022-10-16T09:03:56.201Z,100940.78
2022-10-16T09:06:36.665Z,100939.16
2022-10-16T09:09:14.725Z,100938.88
2022-10-16T09:11:50.994Z,100956.44
2022-10-16T09:14:40.730Z,100955.44
2022-10-16T09:17:19.824Z,100944.22
2022-10-16T09:19:56.326Z,100932.59
2022-10-16T09:22:27.498Z,100933.91
2022-10-16T09:24:56.548Z,100934.66
2022-10-16T09:27:24.344Z,100939.31
2022-10-16T09:29:57.402Z,100935.38
2022-10-16T09:32:27.109Z,100951.38
2022-10-16T09:34:57.378Z,100939.19
2022-10-16T09:37:24.937Z,100947.94
2022-10-16T09:39:54.248Z,100948.16
2022-10-16T09:42:24.712Z,100954.00
2022-10-16T09:44:54.603Z,100963.31
2022-10-16T09:47:24.631Z,100954.44
2022-10-16T09:49:53.768Z,100949.97
2022-10-16T09:52:21.123Z,100948.19
2022-10-16T09:55:15.397Z,100941.31
2022-10-16T09:57:55.486Z,100939.59
2022-10-16T10:00:23.310Z,100933.81
2022-10-16T10:02:50.924Z,100928.94
2022-10-16T10:05:22.634Z,100926.09
2022-10-16T10:08:07.184Z,100924.19
2022-10-16T10:10:40.833Z,100917.13
2022-10-16T10:13:20.071Z,100915.47
2022-10-16T10:15:47.427Z,100919.31
2022-10-16T10:18:23.997Z,100910.47
2022-10-16T10:21:02.123Z,100911.84
2022-10-16T10:23:31.773Z,100911.00
2022-10-16T10:26:16.869Z,100911.91
2022-10-16T10:28:57.413Z,100919.91
2022-10-16T10:31:44.911Z,100917.53
2022-10-16T10:34:40.107Z,100915.53
2022-10-16T10:37:25.817Z,100917.00
2022-10-16T10:40:09.321Z,100914.03
2022-10-16T10:43:02.068Z,100912.84
2022-10-16T10:45:44.479Z,100910.59
2022-10-16T10:48:41.038Z,100922.06
2022-10-16T10:51:44.160Z,100923.38
2022-10-16T10:54:18.991Z,100913.06
2022-10-16T10:56:56.524Z,100907.31
2022-10-16T10:59:47.410Z,100907.53
2022-10-16T11:02:37.689Z,100909.19
2022-10-16T11:05:23.182Z,100895.28
2022-10-16T11:07:50.298Z,100898.47
2022-10-16T11:10:23.774Z,100896.59
2022-10-16T11:12:55.839Z,100902.47
2022-10-16T11:15:29.455Z,100902.34
2022-10-16T11:18:20.503Z,100901.88
2022-10-16T11:21:07.569Z,100901.09
2022-10-16T11:23:42.521Z,100885.78
2022-10-16T11:26:16.274Z,100895.53
2022-10-16T11:28:49.736Z,100888.63
2022-10-16T11:31:20.169Z,100890.59
2022-10-16T11:33:58.741Z,100897.00
2022-10-16T11:36:38.742Z,100884.41
2022-10-16T11:39:24.134Z,100886.69
2022-10-16T11:42:09.501Z,100885.81
2022-10-16T11:44:45.485Z,100878.56
2022-10-16T11:50:44.758Z,100867.03
2022-10-16T11:53:39.787Z,100861.75
2022-10-16T11:56:07.288Z,100856.00
2022-10-16T11:58:50.396Z,100846.78
2022-10-16T12:01:29.734Z,100849.44
2022-10-16T12:04:06.490Z,100853.59
2022-10-16T12:06:52.045Z,100843.91
2022-10-16T12:09:25.722Z,100837.28
2022-10-16T12:11:53.029Z,100828.28
2022-10-16T12:14:23.428Z,100828.41
2022-10-16T12:16:53.577Z,100826.69
2022-10-16T12:19:22.207Z,100843.22
2022-10-16T12:21:50.220Z,100843.72
2022-10-16T12:24:39.894Z,100851.75
2022-10-16T12:27:20.761Z,100840.25
2022-10-16T12:29:48.156Z,100838.09
2022-10-16T12:32:47.326Z,100832.22
2022-10-16T12:35:24.375Z,100836.44
2022-10-16T12:37:52.364Z,100829.94
2022-10-16T12:40:34.241Z,100831.53
2022-10-16T12:43:13.068Z,100826.34
2022-10-16T12:45:40.535Z,100828.13
2022-10-16T12:48:21.374Z,100822.06
2022-10-16T12:50:49.041Z,100816.69
2022-10-16T12:53:22.194Z,100809.09
2022-10-16T12:56:20.570Z,100799.66
2022-10-16T12:58:55.075Z,100811.84
2022-10-16T13:01:35.421Z,100807.88
2022-10-16T13:04:06.098Z,100800.19
2022-10-16T13:06:54.760Z,100805.13
2022-10-16T13:09:40.248Z,100806.63
2022-10-16T13:12:30.287Z,100799.72
2022-10-16T13:15:33.814Z,100795.38
2022-10-16T13:18:19.216Z,100803.13
2022-10-16T13:20:54.605Z,100793.91
2022-10-16T13:23:51.055Z,100790.84
2022-10-16T13:26:27.810Z,100780.66
2022-10-16T13:28:55.182Z,100773.13
2022-10-16T13:31:25.111Z,100770.56
2022-10-16T13:33:55.969Z,100775.00
2022-10-16T13:36:24.221Z,100779.69
2022-10-16T13:39:13.352Z,100772.97
2022-10-16T13:41:41.252Z,100771.13
2022-10-16T13:44:18.812Z,100777.94
2022-10-16T13:46:46.059Z,100783.09
2022-10-16T13:49:16.222Z,100778.16
2022-10-16T13:51:54.729Z,100780.00
2022-10-16T13:54:21.978Z,100775.00
2022-10-16T13:56:57.761Z,100778.66
2022-10-16T13:59:39.603Z,100779.16
2022-10-16T14:02:18.562Z,100785.19
2022-10-16T14:04:46.191Z,100772.91
2022-10-16T14:07:24.056Z,100776.56
2022-10-16T14:09:52.113Z,100769.75
2022-10-16T14:12:24.011Z,100772.75
2022-10-16T14:14:55.645Z,100781.69
2022-10-16T14:17:28.300Z,100780.41
2022-10-16T14:20:00.947Z,100779.50
2022-10-16T14:22:37.216Z,100790.28
2022-10-16T14:25:37.079Z,100783.41
2022-10-16T14:28:14.613Z,100780.28
2022-10-16T14:30:59.535Z,100768.63
2022-10-16T14:33:46.142Z,100769.44
2022-10-16T14:36:23.924Z,100769.94
2022-10-16T14:39:17.654Z,100774.28
2022-10-16T14:41:47.423Z,100774.38
2022-10-16T14:44:14.888Z,100776.38
2022-10-16T14:46:43.955Z,100779.00
2022-10-16T14:49:11.119Z,100779.28
2022-10-16T14:51:39.780Z,100778.66
2022-10-16T14:54:11.734Z,100782.16
2022-10-16T14:56:52.534Z,100783.56
2022-10-16T14:59:30.130Z,100780.63
2022-10-16T15:01:57.473Z,100779.75
2022-10-16T15:04:24.768Z,100767.00
2022-10-16T15:06:52.097Z,100766.56
2022-10-16T15:09:19.474Z,100770.25
2022-10-16T15:11:47.723Z,100762.91
2022-10-16T15:16:47.296Z,100763.94
2022-10-16T15:19:14.710Z,100755.09
2022-10-16T15:21:42.072Z,100754.19
2022-10-16T15:24:16.434Z,100745.66
2022-10-16T15:26:50.333Z,100749.28
2022-10-16T15:29:18.079Z,100743.59
2022-10-16T15:31:49.520Z,100740.50
2022-10-16T15:34:17.250Z,100739.59
2022-10-16T15:36:44.499Z,100739.81
2022-10-16T15:39:15.440Z,100738.66
2022-10-16T15:41:43.533Z,100746.72
2022-10-16T15:44:11.056Z,100748.13
2022-10-16T15:46:38.355Z,100738.88
2022-10-16T15:49:05.722Z,100743.94
2022-10-16T15:51:34.197Z,100751.03
2022-10-16T15:54:02.954Z,100749.78
2022-10-16T15:56:31.602Z,100743.50
2022-10-16T15:58:59.757Z,100737.34
2022-10-16T16:01:27.750Z,100733.13
2022-10-16T16:03:55.406Z,100740.00
2022-10-16T16:06:24.757Z,100738.00
2022-10-16T16:08:52.688Z,100741.56
2022-10-16T16:11:20.179Z,100741.19
2022-10-16T16:13:47.513Z,100743.94
2022-10-16T16:16:17.022Z,100749.28
2022-10-16T16:18:44.676Z,100742.59
2022-10-16T16:21:13.152Z,100747.88
2022-10-16T16:23:40.493Z,100751.78
2022-10-16T16:26:12.451Z,100757.16
2022-10-16T16:28:40.646Z,100763.59
2022-10-16T16:31:08.408Z,100756.78
2022-10-16T16:33:36.001Z,100758.09
2022-10-16T16:36:07.066Z,100756.84
2022-10-16T16:38:35.596Z,100757.22
2022-10-16T16:41:20.703Z,100756.88
2022-10-16T16:43:54.124Z,100761.16
2022-10-16T16:46:22.645Z,100758.75
2022-10-16T16:48:54.602Z,100750.47
2022-10-16T16:51:22.344Z,100762.81
2022-10-16T16:53:51.424Z,100767.41
2022-10-16T16:56:19.530Z,100772.69
2022-10-16T16:58:48.006Z,100759.75
2022-10-16T17:01:19.777Z,100763.81
2022-10-16T17:03:50.661Z,100763.13
2022-10-16T17:06:20.849Z,100778.97
2022-10-16T17:08:49.661Z,100775.97
2022-10-16T17:11:22.721Z,100762.09
2022-10-16T17:13:53.980Z,100772.31
2022-10-16T17:16:32.795Z,100775.25
2022-10-16T17:19:01.715Z,100758.00
2022-10-16T17:21:30.597Z,100760.44
2022-10-16T17:23:58.037Z,100763.00
2022-10-16T17:26:25.845Z,100763.31
2022-10-16T17:28:55.063Z,100752.13
2022-10-16T17:31:25.484Z,100772.38
2022-10-16T17:33:53.431Z,100779.25
2022-10-16T17:36:21.481Z,100781.16
2022-10-16T17:38:48.782Z,100777.53
2022-10-16T17:41:18.496Z,100780.44
2022-10-16T17:43:46.619Z,100780.78
2022-10-16T17:46:16.172Z,100779.13
2022-10-16T17:48:45.593Z,100789.47
2022-10-16T17:51:15.568Z,100778.44
2022-10-16T17:53:43.427Z,100789.56
2022-10-16T17:56:13.570Z,100788.28
2022-10-16T17:58:40.998Z,100789.00
2022-10-16T18:01:21.037Z,100783.59
2022-10-16T18:03:57.395Z,100787.72
2022-10-16T18:06:25.272Z,100795.81
2022-10-16T18:08:53.866Z,100789.47
2022-10-16T18:11:22.129Z,100793.09
2022-10-16T18:13:53.049Z,100777.47
2022-10-16T18:16:20.718Z,100782.00
2022-10-16T18:18:48.164Z,100785.56
2022-10-16T18:21:17.755Z,100777.94
2022-10-16T18:23:50.842Z,100782.41
2022-10-16T18:26:21.056Z,100781.97
2022-10-16T18:28:49.017Z,100790.75
2022-10-16T18:31:17.911Z,100783.22
2022-10-16T18:33:50.667Z,100784.50
2022-10-16T18:36:23.361Z,100789.22
2022-10-16T18:38:51.443Z,100779.78
2022-10-16T18:41:19.221Z,100787.81
2022-10-16T18:43:46.660Z,100791.25
2022-10-16T18:46:17.238Z,100791.34
2022-10-16T18:48:45.407Z,100793.09
2022-10-16T18:51:19.566Z,100786.59
2022-10-16T18:53:50.181Z,100790.97
2022-10-16T18:56:19.621Z,100786.97
2022-10-16T18:58:50.949Z,100785.91
2022-10-16T19:01:21.022Z,100790.88
2022-10-16T19:03:49.445Z,100783.97
2022-10-16T19:06:17.234Z,100782.53
2022-10-16T19:08:44.561Z,100777.41
2022-10-16T19:11:15.296Z,100779.59
2022-10-16T19:13:43.550Z,100772.06
2022-10-16T19:16:20.238Z,100783.25
2022-10-16T19:18:49.667Z,100780.75
2022-10-16T19:21:19.853Z,100775.53
2022-10-16T19:23:51.714Z,100778.69
2022-10-16T19:26:19.872Z,100795.97
2022-10-16T19:28:47.407Z,100796.25
2022-10-16T19:31:57.725Z,100796.13
2022-10-16T19:34:38.873Z,100795.19
2022-10-16T19:37:26.223Z,100806.44
2022-10-16T19:39:54.098Z,100801.94
2022-10-16T19:42:22.303Z,100797.69
2022-10-16T19:44:49.995Z,100808.09
2022-10-16T19:47:19.654Z,100804.97
2022-10-16T19:50:02.050Z,100809.38
2022-10-16T19:52:29.946Z,100808.22
2022-10-16T19:54:57.999Z,100806.63
2022-10-16T19:57:29.677Z,100804.34
2022-10-16T19:59:56.939Z,100814.41
2022-10-16T20:02:27.516Z,100804.03
2022-10-16T20:04:56.797Z,100812.22
2022-10-16T20:07:29.231Z,100815.75
2022-10-16T20:09:59.818Z,100813.28
2022-10-16T20:12:27.414Z,100817.69
2022-10-16T20:15:00.515Z,100818.88
2022-10-16T20:17:27.990Z,100816.19
2022-10-16T20:19:59.529Z,100813.88
2022-10-16T20:22:27.750Z,100820.72
2022-10-16T20:24:54.999Z,100822.44
2022-10-16T20:27:25.410Z,100822.53
2022-10-16T20:29:53.100Z,100819.19
2022-10-16T20:35:19.329Z,100828.25
2022-10-16T20:37:49.058Z,100825.50
2022-10-16T20:40:16.599Z,100838.16
2022-10-16T20:42:44.259Z,100842.03
2022-10-16T20:45:11.818Z,100843.16
2022-10-16T20:47:39.047Z,100848.81
2022-10-16T20:50:06.783Z,100855.91
2022-10-16T20:52:34.564Z,100850.69
2022-10-16T20:55:01.934Z,100853.13
2022-10-16T20:57:29.457Z,100852.47
2022-10-16T20:59:57.048Z,100861.09
2022-10-16T21:02:24.702Z,100851.81
2022-10-16T21:04:52.029Z,100850.09
2022-10-16T21:07:19.219Z,100850.41
2022-10-16T21:09:46.481Z,100851.81
2022-10-16T21:12:14.277Z,100853.03
2022-10-16T21:14:46.413Z,100857.31
2022-10-16T21:17:18.644Z,100852.75
2022-10-16T21:19:46.092Z,100850.25
2022-10-16T21:22:13.356Z,100848.94
2022-10-16T21:24:40.625Z,100848.88
2022-10-16T21:27:08.201Z,100849.69
2022-10-16T21:29:35.497Z,100840.56
2022-10-16T21:32:03.252Z,100843.66
2022-10-16T21:34:30.557Z,100847.03
2022-10-16T21:36:57.820Z,100844.25
2022-10-16T21:39:25.019Z,100848.84
2022-10-16T21:41:52.756Z,100852.50
2022-10-16T21:44:22.876Z,100849.63
2022-10-16T21:46:50.246Z,100849.56
2022-10-16T21:49:19.174Z,100858.47
2022-10-16T21:51:48.939Z,100852.00
2022-10-16T21:54:18.804Z,100858.16
2022-10-16T21:56:46.754Z,100867.81
2022-10-16T21:59:21.519Z,100864.53
2022-10-16T22:01:49.019Z,100861.72
2022-10-16T22:04:16.682Z,100861.25
2022-10-16T22:06:44.728Z,100872.00
2022-10-16T22:09:14.464Z,100869.78
2022-10-16T22:11:45.838Z,100868.16
2022-10-16T22:14:17.037Z,100875.88
2022-10-16T22:16:44.937Z,100881.28
2022-10-16T22:19:13.852Z,100871.06
2022-10-16T22:21:47.881Z,100883.06
2022-10-16T22:24:16.607Z,100874.75
2022-10-16T22:26:45.227Z,100875.13
2022-10-16T22:29:14.467Z,100875.13
2022-10-16T22:31:44.144Z,100880.84
2022-10-16T22:34:14.034Z,100878.47
2022-10-16T22:36:41.442Z,100881.41
2022-10-16T22:39:09.938Z,100891.44
2022-10-16T22:41:37.880Z,100883.19
2022-10-16T22:44:05.096Z,100880.66
2022-10-16T22:46:32.384Z,100892.69
2022-10-16T22:48:59.590Z,100885.69
2022-10-16T22:51:27.550Z,100890.16
2022-10-16T22:53:54.849Z,100895.06
2022-10-16T22:56:22.368Z,100888.19
2022-10-16T22:58:50.003Z,100898.69
2022-10-16T23:01:27.657Z,100903.53
2022-10-16T23:03:55.011Z,100904.28
2022-10-16T23:06:22.274Z,100906.16
2022-10-16T23:08:54.681Z,100910.00
2022-10-16T23:11:22.199Z,100908.19
2022-10-16T23:13:49.503Z,100909.28
2022-10-16T23:16:18.265Z,100897.38
2022-10-16T23:18:45.964Z,100907.59
2022-10-16T23:21:24.186Z,100905.69
2022-10-16T23:23:52.248Z,100910.31
2022-10-16T23:26:24.940Z,100915.47
2022-10-16T23:28:52.471Z,100904.00
2022-10-16T23:31:20.086Z,100908.13
2022-10-16T23:33:57.737Z,100911.31
2022-10-16T23:36:25.376Z,100907.16
2022-10-16T23:38:52.661Z,100911.44
2022-10-16T23:41:20.352Z,100907.69
2022-10-16T23:43:48.169Z,100912.16
2022-10-16T23:46:15.899Z,100902.41
2022-10-16T23:48:43.227Z,100907.00
2022-10-16T23:51:11.416Z,100915.41
2022-10-16T23:53:38.778Z,100911.00
2022-10-16T23:56:06.149Z,100911.00
2022-10-16T23:58:33.358Z,100905.53
